This is the latest recevied weather packets stored in our database for station/object N5ZKK. If no packets are shown the sender has not sent any weather packets the latest 10 day(s).
| Time | Temp. | Humidity | Pressure | Rain* | Wind** | Luminosity | Snow |
|---|---|---|---|---|---|---|---|
| 1777665924 | 14.44° C | 97% | 1016.4 hPa | 0 mm | - | - | - |
| 1777664151 | 15° C | 94% | 1015.8 hPa | 0 mm | - | - | - |
| 1777661716 | 16.67° C | 95% | 1015 hPa | 0.51 mm | - | - | - |
| 1777661124 | 16.11° C | 97% | 1014.7 hPa | 0.51 mm | - | - | - |
| 1777660527 | 16.11° C | 97% | 1014.8 hPa | 0.51 mm | - | - | - |
| 1777641320 | 15° C | 99% | 1016.8 hPa | 3.05 mm | - | - | - |
| 1777635324 | 15° C | 99% | 1014.7 hPa | 0 mm | - | - | - |
| 1777634123 | 15° C | 99% | 1014.3 hPa | 0 mm | - | - | - |
| 1777629329 | 15.56° C | 99% | 1015.3 hPa | 1.78 mm | - | - | - |
| 1777628726 | 15.56° C | 99% | 1015.6 hPa | 0.76 mm | - | - | - |
| 1777622152 | 16.11° C | 99% | 1015.5 hPa | 0 mm | - | - | - |
| 1777620918 | 16.11° C | 99% | 1015.2 hPa | 0 mm | - | - | - |
| 1777618522 | 16.11° C | 99% | 1015.9 hPa | 0 mm | - | - | - |
| 1777615515 | 16.11° C | 99% | 1015.4 hPa | 0.25 mm | - | - | - |
| 1777611331 | 16.67° C | 99% | 1015.7 hPa | 0.25 mm | - | - | - |
| 1777608922 | 17.22° C | 99% | 1016 hPa | 0 mm | - | - | - |
| 1777608324 | 17.22° C | 99% | 1016 hPa | 0 mm | - | - | - |
| 1777606531 | 17.78° C | 99% | 1016.2 hPa | 0 mm | - | - | - |
| 1777605947 | 17.78° C | 99% | 1016.1 hPa | 0 mm | - | - | - |
| 1777604719 | 17.78° C | 99% | 1015.4 hPa | 1.02 mm | - | - | - |
| 1777600516 | 18.33° C | 99% | 1014.3 hPa | 2.54 mm | - | - | - |
| 1777599321 | 18.89° C | 97% | 1014.2 hPa | 1.27 mm | - | - | - |
| 1777595119 | 21.11° C | 87% | 1013.1 hPa | 0 mm | - | - | - |
| 1777593325 | 22.22° C | 86% | 1013.2 hPa | 0 mm | - | - | - |
| 1777583724 | 23.89° C | 77% | 1013.1 hPa | 0 mm | - | - | - |
* Rain latest hour (hover to see other rain measurements)
** Current wind speed in m/s (hover to see current wind gust speed)